Latest Weather Observations for Lake Macquarie - Cooranbong

IDN60801

Issued at 9:35 am EST Saturday 20 September 2014 (issued every 30 minutes, with the page automatically refreshed every 10 minutes)

About weather observations | Map of weather stations | Latest weather observations for NSW | Other Formats
Station Details ID: 061412 Name: LAKE MACQUARIE AWS Lat: -33.09 Lon: 151.46 Height: 6.0 m
Data from the previous 72 hours. | See also: Recent months at Lake Macquarie - Cooranbong
Date/Time
EST
Temp
°C
App
Temp
°C
Dew
Point
Rel
Hum
%
Delta-T
°C
Wind Press
QNH
hPa
Press
MSL
hPa
Rain
since 9 am
mm
Dir
 
Spd
km/h
Gust
km/h
Spd
kts
Gust
kts
20/09:30am 17.7 16.7 7.4 51 5.2 NE 2 6 1 3 1024.4 1024.4 0.0
20/09:00am 16.9 16.3 9.1 60 4.0 NE 2 4 1 2 1024.4 1024.4 0.0
20/08:30am 14.9 14.6 8.8 67 3.1 CALM 0 0 0 0 1024.2 1024.2 0.0
20/08:00am 12.1 12.0 9.3 83 1.4 CALM 0 0 0 0 1024.0 1024.0 0.0
20/07:30am 9.3 9.1 9.0 98 0.1 CALM 0 0 0 0 1023.8 1023.8 0.0
20/07:00am 5.9 4.9 5.5 97 0.2 CALM 0 0 0 0 1023.4 1023.4 0.0
20/06:30am 3.9 2.5 3.3 96 0.2 CALM 0 0 0 0 1022.9 1022.9 0.0
20/06:00am 3.6 2.1 3.0 96 0.2 S 0 0 0 0 1022.4 1022.4 0.0
20/05:30am 3.7 2.2 3.1 96 0.2 CALM 0 0 0 0 1021.9 1021.9 0.0
20/05:00am 3.5 2.0 2.8 95 0.3 CALM 0 0 0 0 1021.4 1021.4 0.0
20/04:30am 4.1 2.7 3.5 96 0.2 CALM 0 0 0 0 1021.2 1021.2 0.0
20/04:00am 4.1 1.9 3.5 96 0.2 NE 4 7 2 4 1021.0 1021.0 0.0
20/03:30am 4.4 3.0 3.7 95 0.3 CALM 0 0 0 0 1021.0 1021.0 0.0
20/03:00am 4.4 3.0 3.5 94 0.4 CALM 0 0 0 0 1021.1 1021.1 0.0
20/02:30am 4.7 3.3 3.8 94 0.4 CALM 0 0 0 0 1021.2 1021.2 0.0
20/02:00am 4.8 3.5 3.9 94 0.4 CALM 0 0 0 0 1021.3 1021.3 0.0
20/01:30am 5.1 3.8 4.2 94 0.4 CALM 0 0 0 0 1021.6 1021.6 0.0
20/01:00am 5.7 4.5 4.8 94 0.4 CALM 0 0 0 0 1021.8 1021.8 0.0
20/12:30am 5.5 4.3 4.5 93 0.4 CALM 0 0 0 0 1021.9 1021.9 0.0
20/12:00am 6.2 5.1 5.3 94 0.4 NE 0 0 0 0 1021.9 1021.9 0.0
 
Date/Time
EST
Temp
°C
App
Temp
°C
Dew
Point
Rel
Hum
%
Delta-T
°C
Wind Press
QNH
hPa
Press
MSL
hPa
Rain
since 9 am
mm
Dir
 
Spd
km/h
Gust
km/h
Spd
kts
Gust
kts
19/11:30pm 6.5 5.5 5.5 93 0.4 CALM 0 0 0 0 1022.1 1022.1 0.0
19/11:00pm 6.8 5.8 5.7 93 0.5 CALM 0 0 0 0 1022.1 1022.1 0.0
19/10:30pm 7.0 6.0 5.6 91 0.6 CALM 0 0 0 0 1022.2 1022.2 0.0
19/10:00pm 7.5 6.6 6.0 90 0.7 CALM 0 0 0 0 1022.1 1022.1 0.0
19/09:30pm 8.0 7.2 6.6 91 0.6 CALM 0 0 0 0 1021.9 1021.9 0.0
19/09:00pm 8.4 7.7 6.9 90 0.7 CALM 0 0 0 0 1021.8 1021.8 0.0
19/08:30pm 8.8 8.0 6.6 86 1.0 CALM 0 0 0 0 1021.5 1021.5 0.0
19/08:00pm 9.3 8.6 6.9 85 1.1 CALM 0 0 0 0 1021.3 1021.3 0.0
19/07:30pm 10.1 9.5 7.5 84 1.2 CALM 0 0 0 0 1020.9 1020.9 0.0
19/07:00pm 10.6 9.8 6.4 75 2.0 CALM 0 0 0 0 1020.6 1020.6 0.0
19/06:30pm 11.8 11.0 6.7 71 2.4 CALM 0 0 0 0 1020.3 1020.3 0.0
19/06:00pm 13.7 12.8 6.1 60 3.6 CALM 0 0 0 0 1020.0 1020.0 0.0
19/05:30pm 15.4 13.7 5.9 53 4.6 NNE 4 6 2 3 1019.6 1019.6 0.0
19/05:00pm 16.3 14.7 6.2 51 4.9 ESE 4 9 2 5 1019.3 1019.3 0.0
19/04:30pm 16.5 15.0 6.9 53 4.7 ESE 4 6 2 3 1019.3 1019.3 0.0
19/04:00pm 17.1 15.1 6.3 49 5.3 E 6 11 3 6 1019.1 1019.1 0.0
19/03:30pm 17.2 14.9 5.5 46 5.6 E 7 13 4 7 1019.0 1019.0 0.0
19/03:00pm 18.1 15.3 5.3 43 6.2 E 9 17 5 9 1018.9 1018.9 0.0
19/02:30pm 18.7 16.1 3.3 36 7.2 E 6 11 3 6 1019.1 1019.1 0.0
19/02:00pm 19.5 16.8 2.8 33 7.7 S 6 11 3 6 1019.2 1019.2 0.0
19/01:30pm 19.3 16.8 3.5 35 7.4 WSW 6 13 3 7 1019.5 1019.5 0.0
19/01:00pm 18.3 15.5 2.2 34 7.3 SE 6 9 3 5 1019.9 1019.9 0.0
19/12:30pm 18.4 16.2 3.5 37 7.0 ESE 4 7 2 4 1020.2 1020.2 0.0
19/12:00pm 18.7 16.2 4.8 40 6.7 SE 7 15 4 8 1020.7 1020.7 0.0
19/11:30am 17.6 15.6 4.2 41 6.3 E 4 9 2 5 1021.1 1021.1 0.0
19/11:00am 17.2 15.1 3.8 41 6.2 S 4 11 2 6 1021.7 1021.7 0.0
19/10:30am 16.4 13.8 4.1 44 5.7 N 7 11 4 6 1022.0 1022.0 0.0
19/10:00am 16.4 14.3 4.1 44 5.7 WSW 4 11 2 6 1022.4 1022.4 0.0
19/09:30am 15.8 14.4 5.4 50 5.0 E 2 4 1 2 1022.6 1022.6 0.0
19/09:00am 14.1 12.5 4.4 52 4.4 N 2 6 1 3 1022.8 1022.8 0.0
19/08:30am 13.3 12.8 7.7 69 2.7 CALM 0 0 0 0 1022.8 1022.8 0.0
19/08:00am 10.9 10.3 7.4 79 1.7 CALM 0 0 0 0 1022.6 1022.6 0.0
19/07:30am 9.3 9.0 8.8 97 0.2 CALM 0 0 0 0 1022.2 1022.2 0.0
19/07:00am 6.4 5.5 6.0 97 0.2 CALM 0 0 0 0 1022.2 1022.2 0.0
19/06:30am 4.5 3.2 3.9 96 0.3 CALM 0 2 0 1 1022.1 1022.1 0.0
19/06:00am 4.1 2.7 3.5 96 0.2 CALM 0 0 0 0 1021.8 1021.8 0.0
19/05:30am 4.3 2.9 3.7 96 0.2 CALM 0 0 0 0 1021.6 1021.6 0.0
19/05:00am 4.1 2.7 3.4 95 0.3 CALM 0 0 0 0 1021.3 1021.3 0.0
19/04:30am 4.3 2.9 3.6 95 0.3 CALM 0 0 0 0 1020.9 1020.9 0.0
19/04:00am 4.8 3.5 4.1 95 0.3 CALM 0 0 0 0 1020.8 1020.8 0.0
19/03:30am 5.0 3.7 4.3 95 0.3 CALM 0 0 0 0 1020.7 1020.7 0.0
19/03:00am 5.2 4.0 4.5 95 0.3 CALM 0 0 0 0 1020.6 1020.6 0.0
19/02:30am 5.7 4.5 4.8 94 0.4 CALM 0 0 0 0 1020.7 1020.7 0.0
19/02:00am 6.0 4.8 4.8 92 0.5 CALM 0 0 0 0 1021.0 1021.0 0.0
19/01:30am 6.2 5.1 5.2 93 0.4 CALM 0 0 0 0 1021.2 1021.2 0.0
19/01:00am 6.8 5.8 5.4 91 0.6 CALM 0 0 0 0 1021.3 1021.3 0.0
19/12:30am 7.3 6.4 5.9 91 0.6 CALM 0 0 0 0 1021.4 1021.4 0.0
19/12:00am 7.3 6.4 5.9 91 0.6 CALM 0 0 0 0 1021.6 1021.6 0.0
 
Date/Time
EST
Temp
°C
App
Temp
°C
Dew
Point
Rel
Hum
%
Delta-T
°C
Wind Press
QNH
hPa
Press
MSL
hPa
Rain
since 9 am
mm
Dir
 
Spd
km/h
Gust
km/h
Spd
kts
Gust
kts
18/11:30pm 7.5 6.7 6.3 92 0.5 CALM 0 0 0 0 1021.7 1021.7 0.0
18/11:00pm 7.4 6.5 6.2 92 0.5 CALM 0 0 0 0 1021.9 1021.9 0.0
18/10:30pm 7.2 6.2 5.7 90 0.7 CALM 0 0 0 0 1021.9 1021.9 0.0
18/10:00pm 7.2 6.2 5.7 90 0.7 CALM 0 0 0 0 1021.8 1021.8 0.0
18/09:30pm 7.5 6.5 5.6 88 0.8 CALM 0 0 0 0 1021.7 1021.7 0.0
18/09:00pm 8.0 7.0 5.6 85 1.1 CALM 0 0 0 0 1021.7 1021.7 0.0
18/08:30pm 8.7 7.9 6.5 86 1.0 CALM 0 0 0 0 1021.4 1021.4 0.0
18/08:00pm 8.8 7.9 5.9 82 1.3 CALM 0 0 0 0 1021.2 1021.2 0.0
18/07:30pm 9.4 8.5 6.1 80 1.5 CALM 0 0 0 0 1020.8 1020.8 0.0
18/07:00pm 9.9 9.0 6.1 77 1.7 CALM 0 0 0 0 1020.1 1020.1 0.0
18/06:30pm 11.0 9.8 4.7 65 2.8 CALM 0 0 0 0 1019.6 1019.6 0.0
18/06:00pm 12.5 11.4 5.0 60 3.4 CALM 0 0 0 0 1019.4 1019.4 0.0
18/05:30pm 14.2 12.1 3.7 49 4.8 S 4 11 2 6 1018.8 1018.8 0.0
18/05:00pm 15.4 12.5 2.6 42 5.7 SSE 7 17 4 9 1018.3 1018.3 0.0
18/04:30pm 16.0 12.8 3.1 42 5.9 ESE 9 17 5 9 1017.8 1017.8 0.0
18/04:00pm 16.2 13.5 3.6 43 5.8 SE 7 15 4 8 1017.5 1017.5 0.0
18/03:30pm 17.1 13.3 1.9 36 6.8 SE 11 17 6 9 1017.2 1017.2 0.0
18/03:00pm 16.9 12.4 2.1 37 6.6 ESE 15 24 8 13 1017.1 1017.1 0.0
18/02:30pm 17.5 13.4 2.3 36 6.9 SE 13 26 7 14 1016.7 1016.7 0.0
18/02:00pm 18.1 13.7 2.8 36 7.0 ESE 15 24 8 13 1016.6 1016.6 0.0
18/01:30pm 20.1 16.8 0.0 26 8.9 S 7 19 4 10 1016.8 1016.8 0.0
18/01:00pm 19.6 16.2 -0.4 26 8.7 SSW 7 17 4 9 1017.0 1017.0 0.0
18/12:30pm 19.0 15.6 -0.4 27 8.4 SSW 7 17 4 9 1017.3 1017.3 0.0
18/12:00pm 18.8 14.8 0.4 29 8.1 S 11 22 6 12 1017.8 1017.8 0.0
18/11:30am 18.1 13.9 -0.7 28 8.0 S 11 20 6 11 1018.1 1018.1 0.0
18/11:00am 17.7 14.2 -1.0 28 7.9 SSW 7 13 4 7 1018.4 1018.4 0.0
18/10:30am 17.3 13.0 -1.9 27 8.0 SW 11 22 6 12 1018.6 1018.6 0.0
18/10:00am 17.4 13.3 0.1 31 7.5 W 11 19 6 10 1018.5 1018.5 0.0
18/09:30am 16.6 12.6 0.3 33 7.0 W 11 22 6 12 1018.6 1018.6 0.0
18/09:00am 16.3 12.7 0.4 34 6.8 SW 9 19 5 10 1018.8 1018.8 0.0
18/08:30am 15.7 11.4 0.7 36 6.5 WSW 13 22 7 12 1019.0 1019.0 0.0
18/08:00am 15.1 11.6 1.3 39 6.0 W 9 19 5 10 1018.6 1018.6 0.0
18/07:30am 13.4 10.4 4.0 53 4.3 WNW 9 13 5 7 1018.5 1018.5 0.0
18/07:22am 12.3 10.1 5.2 62 3.3 WNW 6 11 3 6 1018.4 1018.4 0.0
18/07:00am 7.1 6.3 6.4 95 0.3 CALM 0 0 0 0 1018.3 1018.3 0.0
18/06:30am 5.6 4.4 4.6 93 0.4 CALM 0 0 0 0 1018.0 1018.0 0.0
18/06:00am 5.3 4.0 4.1 92 0.5 CALM 0 0 0 0 1017.6 1017.6 0.0
18/05:30am 5.5 4.2 4.2 91 0.6 CALM 0 0 0 0 1017.3 1017.3 0.0
18/05:00am 5.4 4.1 3.9 90 0.6 CALM 0 0 0 0 1017.2 1017.2 0.0
18/04:30am 5.6 4.2 3.8 88 0.8 CALM 0 0 0 0 1016.7 1016.7 0.0
18/04:00am 6.6 5.5 4.9 89 0.7 CALM 0 0 0 0 1016.5 1016.5 0.0
18/03:30am 7.1 6.0 5.3 88 0.8 CALM 0 0 0 0 1016.2 1016.2 0.0
18/03:00am 7.3 6.2 5.0 85 1.0 CALM 0 0 0 0 1016.0 1016.0 0.0
18/02:30am 8.2 6.7 4.8 79 1.5 WNW 2 6 1 3 1015.8 1015.8 0.0
18/02:00am 10.3 8.1 3.6 63 2.9 WNW 4 7 2 4 1015.8 1015.8 0.0
18/01:30am 9.9 7.5 4.3 68 2.5 WNW 6 13 3 7 1016.0 1016.0 0.0
18/01:00am 9.2 7.8 5.6 78 1.6 NW 2 6 1 3 1016.0 1016.0 0.0
18/12:30am 11.0 9.1 4.7 65 2.8 NW 4 7 2 4 1016.0 1016.0 0.0
18/12:00am 10.9 8.9 4.4 64 2.9 NNW 4 7 2 4 1015.9 1015.9 0.0
 
Date/Time
EST
Temp
°C
App
Temp
°C
Dew
Point
Rel
Hum
%
Delta-T
°C
Wind Press
QNH
hPa
Press
MSL
hPa
Rain
since 9 am
mm
Dir
 
Spd
km/h
Gust
km/h
Spd
kts
Gust
kts
17/11:30pm 15.3 11.9 2.1 41 5.8 W 9 15 5 8 1015.8 1015.8 0.0
17/11:00pm 16.1 12.7 1.8 38 6.3 W 9 15 5 8 1015.8 1015.8 0.0
17/10:30pm 16.0 12.3 2.4 40 6.1 W 11 20 6 11 1015.4 1015.4 0.0
17/10:12pm 14.6 11.7 4.6 51 4.6 W 9 26 5 14 1015.4 1015.4 0.0
17/10:00pm 9.2 8.4 6.3 82 1.3 CALM 0 2 0 1 1015.4 1015.4 0.0
17/09:30pm 9.4 8.6 6.5 82 1.3 CALM 0 4 0 2 1015.3 1015.3 0.0
17/09:00pm 9.7 8.8 6.1 78 1.7 CALM 0 0 0 0 1015.0 1015.0 0.0
17/08:30pm 10.8 9.9 6.2 73 2.1 CALM 0 0 0 0 1014.7 1014.7 0.0
17/08:00pm 11.2 9.8 5.7 69 2.5 N 2 6 1 3 1014.3 1014.3 0.0
17/07:30pm 12.7 11.6 4.9 59 3.6 CALM 0 4 0 2 1014.2 1014.2 0.0
17/07:00pm 14.1 12.2 4.9 54 4.3 NNW 4 6 2 3 1013.8 1013.8 0.0
17/06:30pm 16.8 14.4 2.0 37 6.6 W 4 7 2 4 1013.4 1013.4 0.0
17/06:00pm 18.6 15.3 0.2 29 8.1 WSW 7 13 4 7 1013.0 1013.0 0.0
17/05:30pm 19.6 16.0 0.6 28 8.5 WSW 9 20 5 11 1012.6 1012.6 0.0
17/05:00pm 20.8 16.7 0.1 25 9.2 W 11 22 6 12 1012.0 1012.0 0.0
17/04:30pm 20.3 17.4 1.2 28 8.7 SW 6 9 3 5 1011.5 1011.5 0.0
17/04:00pm 22.1 18.0 0.0 23 9.9 W 11 20 6 11 1011.0 1011.0 0.0
17/03:30pm 22.4 18.0 0.3 23 10.0 WSW 13 24 7 13 1010.5 1010.5 0.0
17/03:00pm 22.2 17.8 0.1 23 10.0 WSW 13 26 7 14 1010.2 1010.2 0.0
17/02:30pm 22.7 17.9 0.5 23 10.1 WNW 15 26 8 14 1010.1 1010.1 0.0
17/02:00pm 22.0 17.6 0.5 24 9.8 W 13 26 7 14 1010.1 1010.1 0.0
17/01:30pm 21.8 17.8 0.4 24 9.7 WNW 11 30 6 16 1010.5 1010.5 0.0
17/01:00pm 21.9 18.2 2.1 27 9.3 ENE 11 22 6 12 1010.6 1010.6 0.0
17/12:30pm 21.4 17.5 1.1 26 9.3 W 11 19 6 10 1010.9 1010.9 0.0
17/12:00pm 20.9 16.6 1.2 27 9.0 W 13 26 7 14 1011.3 1011.3 0.0
17/11:30am 20.1 16.1 0.5 27 8.7 W 11 19 6 10 1011.8 1011.8 0.0
17/11:00am 20.5 17.2 2.3 30 8.5 WSW 9 20 5 11 1012.2 1012.2 0.0
17/10:30am 19.4 14.3 0.9 29 8.3 W 17 28 9 15 1012.6 1012.6 0.0
17/10:00am 19.1 15.2 1.1 30 8.1 W 11 22 6 12 1012.8 1012.8 0.0

Other Formats:

Comma delimited format used in spreadsheet applications
http://www.bom.gov.au/fwo/IDN60801/IDN60801.95767.axf

JavaScript Object Notation format (JSON) in row-major order
http://www.bom.gov.au/fwo/IDN60801/IDN60801.95767.json